createdAt,value
2018-12-20T00:01:41.856Z,70.23
2018-12-20T00:04:10.970Z,68.57
2018-12-20T00:06:39.952Z,76.57
2018-12-20T00:09:09.042Z,74.17
2018-12-20T00:11:38.090Z,75.37
2018-12-20T00:14:07.210Z,77.93
2018-12-20T00:16:36.269Z,75.57
2018-12-20T00:19:05.445Z,70.60
2018-12-20T00:21:34.555Z,76.33
2018-12-20T00:24:03.568Z,71.03
2018-12-20T00:26:32.691Z,73.87
2018-12-20T00:29:01.838Z,72.17
2018-12-20T00:31:30.913Z,76.20
2018-12-20T00:33:59.995Z,73.20
2018-12-20T00:36:28.962Z,79.10
2018-12-20T00:38:58.008Z,73.73
2018-12-20T00:41:27.072Z,72.60
2018-12-20T00:43:56.161Z,75.60
2018-12-20T00:46:26.307Z,74.87
2018-12-20T00:48:55.381Z,69.20
2018-12-20T00:51:24.388Z,75.70
2018-12-20T00:53:53.430Z,72.80
2018-12-20T00:56:22.504Z,71.90
2018-12-20T00:58:51.567Z,76.20
2018-12-20T01:01:20.627Z,64.20
2018-12-20T01:03:49.830Z,68.83
2018-12-20T01:06:18.859Z,73.47
2018-12-20T01:08:47.992Z,80.63
2018-12-20T01:11:16.944Z,73.10
2018-12-20T01:13:46.032Z,79.90
2018-12-20T01:16:15.197Z,78.50
2018-12-20T01:18:44.220Z,70.67
2018-12-20T01:21:13.333Z,71.83
2018-12-20T01:23:42.319Z,74.73
2018-12-20T01:26:11.367Z,71.87
2018-12-20T01:28:40.454Z,85.73
2018-12-20T01:31:09.589Z,74.47
2018-12-20T01:33:38.629Z,72.97
2018-12-20T01:36:07.730Z,74.70
2018-12-20T01:38:36.764Z,70.37
2018-12-20T01:41:05.824Z,65.60
2018-12-20T01:43:35.175Z,72.00
2018-12-20T01:46:04.113Z,73.87
2018-12-20T01:48:33.208Z,79.23
2018-12-20T01:51:02.255Z,73.90
2018-12-20T01:53:31.416Z,78.10
2018-12-20T01:56:00.481Z,72.70
2018-12-20T01:58:29.691Z,74.13
2018-12-20T02:00:58.609Z,84.37
2018-12-20T02:03:27.732Z,76.97
2018-12-20T02:05:57.088Z,78.73
2018-12-20T02:08:26.143Z,73.00
2018-12-20T02:10:55.326Z,61.47
2018-12-20T02:13:24.426Z,73.47
2018-12-20T02:15:53.545Z,75.90
2018-12-20T02:18:22.523Z,71.07
2018-12-20T02:20:51.715Z,75.80
2018-12-20T02:23:20.640Z,68.90
2018-12-20T02:25:49.985Z,75.60
2018-12-20T02:28:19.058Z,76.77
2018-12-20T02:30:48.003Z,78.70
2018-12-20T02:33:16.987Z,78.53
2018-12-20T02:35:45.996Z,75.00
2018-12-20T02:38:15.265Z,80.57
2018-12-20T02:40:44.209Z,75.13
2018-12-20T02:43:13.201Z,74.33
2018-12-20T02:45:42.291Z,74.33
2018-12-20T02:48:11.377Z,74.13
2018-12-20T02:50:40.849Z,76.10
2018-12-20T02:53:09.744Z,85.57
2018-12-20T02:55:38.579Z,74.13
2018-12-20T02:58:07.659Z,76.57
2018-12-20T03:00:36.713Z,70.97
2018-12-20T03:03:05.785Z,70.27
2018-12-20T03:05:35.868Z,71.83
2018-12-20T03:08:04.770Z,81.00
2018-12-20T03:10:33.943Z,76.40
2018-12-20T03:13:03.093Z,79.87
2018-12-20T03:15:32.167Z,77.40
2018-12-20T03:18:01.051Z,73.10
2018-12-20T03:20:30.408Z,74.63
2018-12-20T03:22:59.206Z,69.40
2018-12-20T03:25:28.352Z,77.33
2018-12-20T03:27:57.458Z,77.53
2018-12-20T03:30:26.586Z,71.30
2018-12-20T03:32:55.553Z,71.37
2018-12-20T03:35:24.665Z,71.60
2018-12-20T03:37:53.775Z,79.00
2018-12-20T03:40:22.682Z,70.97
2018-12-20T03:42:51.889Z,75.03
2018-12-20T03:45:28.379Z,70.23
2018-12-20T03:47:49.896Z,71.10
2018-12-20T03:50:19.079Z,72.60
2018-12-20T03:52:48.130Z,77.67
2018-12-20T03:55:17.316Z,77.83
2018-12-20T03:57:47.007Z,81.60
2018-12-20T04:00:15.953Z,77.47
2018-12-20T04:02:45.074Z,76.10
2018-12-20T04:05:13.990Z,68.90
2018-12-20T04:07:43.238Z,76.97
2018-12-20T04:10:12.053Z,74.37
2018-12-20T04:12:41.138Z,75.23
2018-12-20T04:15:10.209Z,70.43
2018-12-20T04:17:39.296Z,72.37
2018-12-20T04:20:08.601Z,71.83
2018-12-20T04:22:37.584Z,67.77
2018-12-20T04:25:06.621Z,68.07
2018-12-20T04:27:35.789Z,74.03
2018-12-20T04:30:04.783Z,71.90
2018-12-20T04:32:33.987Z,71.43
2018-12-20T04:35:02.938Z,66.13
2018-12-20T04:37:32.171Z,76.57
2018-12-20T04:40:01.064Z,66.33
2018-12-20T04:42:30.278Z,70.23
2018-12-20T04:44:59.224Z,68.40
2018-12-20T04:47:31.061Z,71.20
2018-12-20T04:50:00.116Z,74.70
2018-12-20T04:52:29.218Z,72.40
2018-12-20T04:54:58.420Z,67.63
2018-12-20T04:57:27.561Z,68.20
2018-12-20T04:59:56.464Z,65.63
2018-12-20T05:02:25.777Z,73.57
2018-12-20T05:04:54.604Z,69.87
2018-12-20T05:07:23.836Z,64.47
2018-12-20T05:09:52.713Z,62.27
2018-12-20T05:12:22.031Z,73.60
2018-12-20T05:14:50.879Z,65.13
2018-12-20T05:17:20.098Z,70.57
2018-12-20T05:19:49.006Z,72.53
2018-12-20T05:22:18.097Z,68.00
2018-12-20T05:24:47.152Z,65.73
2018-12-20T05:27:16.347Z,68.07
2018-12-20T05:29:45.326Z,68.43
2018-12-20T05:32:14.653Z,58.67
2018-12-20T05:34:43.696Z,65.07
2018-12-20T05:37:12.558Z,75.67
2018-12-20T05:39:41.634Z,65.27
2018-12-20T05:42:10.802Z,70.90
2018-12-20T05:44:39.765Z,65.90
2018-12-20T05:47:08.937Z,69.07
2018-12-20T05:49:38.017Z,76.03
2018-12-20T05:52:06.944Z,66.00
2018-12-20T05:54:36.010Z,62.13
2018-12-20T05:57:10.748Z,70.83
2018-12-20T05:59:39.977Z,73.70
2018-12-20T06:02:08.864Z,79.80
2018-12-20T06:04:38.117Z,82.13
2018-12-20T06:07:07.058Z,71.77
2018-12-20T06:09:36.078Z,71.37
2018-12-20T06:12:05.229Z,78.03
2018-12-20T06:14:34.412Z,76.87
2018-12-20T06:17:03.428Z,75.43
2018-12-20T06:19:32.581Z,72.90
2018-12-20T06:22:01.643Z,70.20
2018-12-20T06:24:30.531Z,67.83
2018-12-20T06:26:59.642Z,70.07
2018-12-20T06:29:28.716Z,69.87
2018-12-20T06:31:57.774Z,72.47
2018-12-20T06:34:26.980Z,71.20
2018-12-20T06:36:56.036Z,70.87
2018-12-20T06:39:25.096Z,66.93
2018-12-20T06:41:54.334Z,67.30
2018-12-20T06:44:23.395Z,65.07
2018-12-20T06:46:52.464Z,72.37
2018-12-20T06:49:21.551Z,70.70
2018-12-20T06:51:50.613Z,69.30
2018-12-20T06:54:19.669Z,81.17
2018-12-20T06:56:48.801Z,65.27
2018-12-20T06:59:17.870Z,70.37
2018-12-20T07:01:46.911Z,73.03
2018-12-20T07:04:15.994Z,71.37
2018-12-20T07:06:45.058Z,74.43
2018-12-20T07:09:14.112Z,63.60
2018-12-20T07:11:43.190Z,67.37
2018-12-20T07:14:12.250Z,69.40
2018-12-20T07:16:41.334Z,62.07
2018-12-20T07:19:10.459Z,68.37
2018-12-20T07:21:39.590Z,67.00
2018-12-20T07:24:08.623Z,69.50
2018-12-20T07:26:37.724Z,65.80
2018-12-20T07:29:06.792Z,68.23
2018-12-20T07:31:35.848Z,62.73
2018-12-20T07:34:04.941Z,52.83
2018-12-20T07:36:34.006Z,69.10
2018-12-20T07:39:03.090Z,65.17
2018-12-20T07:41:32.506Z,60.60
2018-12-20T07:44:01.572Z,62.90
2018-12-20T07:46:37.537Z,69.77
2018-12-20T07:48:59.967Z,63.13
2018-12-20T07:51:29.038Z,65.33
2018-12-20T07:53:58.107Z,64.30
2018-12-20T07:56:27.210Z,73.30
2018-12-20T07:58:56.336Z,71.90
2018-12-20T08:01:25.387Z,80.00
2018-12-20T08:03:54.492Z,65.13
2018-12-20T08:06:44.536Z,67.43
2018-12-20T08:09:13.623Z,70.63
2018-12-20T08:11:42.688Z,67.93
2018-12-20T08:14:11.761Z,65.97
2018-12-20T08:16:46.023Z,75.53
2018-12-20T08:19:09.939Z,71.03
2018-12-20T08:21:39.067Z,67.40
2018-12-20T08:24:08.181Z,63.57
2018-12-20T08:26:37.243Z,75.43
2018-12-20T08:29:06.305Z,71.97
2018-12-20T08:31:35.391Z,63.37
2018-12-20T08:34:04.546Z,69.30
2018-12-20T08:36:33.616Z,66.17
2018-12-20T08:39:02.714Z,65.27
2018-12-20T08:41:31.784Z,66.97
2018-12-20T08:44:00.846Z,61.83
2018-12-20T08:46:31.674Z,58.27
2018-12-20T08:48:59.009Z,62.80
2018-12-20T08:51:28.067Z,66.77
2018-12-20T08:53:57.155Z,58.10
2018-12-20T08:56:26.216Z,63.83
2018-12-20T08:58:55.286Z,66.10
2018-12-20T09:01:24.380Z,62.40
2018-12-20T09:03:53.449Z,74.73
2018-12-20T09:06:22.516Z,74.83
2018-12-20T09:08:51.605Z,70.80
2018-12-20T09:11:20.668Z,65.23
2018-12-20T09:13:49.750Z,68.57
2018-12-20T09:16:18.854Z,63.10
2018-12-20T09:18:47.920Z,74.33
2018-12-20T09:21:16.971Z,64.00
2018-12-20T09:23:46.323Z,79.90
2018-12-20T09:26:15.415Z,67.37
2018-12-20T09:28:44.470Z,68.77
2018-12-20T09:31:13.644Z,71.77
2018-12-20T09:33:42.712Z,69.17
2018-12-20T09:36:11.806Z,95.40
2018-12-20T09:38:40.922Z,70.40
2018-12-20T09:41:09.982Z,94.73
2018-12-20T09:43:39.046Z,75.83
2018-12-20T09:46:08.168Z,73.23
2018-12-20T09:48:37.238Z,62.63
2018-12-20T09:51:06.295Z,64.37
2018-12-20T09:53:35.383Z,81.37
2018-12-20T09:56:04.442Z,72.53
2018-12-20T09:58:33.498Z,98.07
2018-12-20T10:01:02.589Z,76.17
2018-12-20T10:03:31.655Z,68.73
2018-12-20T10:06:00.729Z,71.20
2018-12-20T10:08:29.841Z,75.60
2018-12-20T10:10:58.893Z,69.00
2018-12-20T10:13:27.948Z,62.17
2018-12-20T10:15:57.030Z,68.77
2018-12-20T10:18:26.094Z,74.37
2018-12-20T10:20:55.162Z,64.73
2018-12-20T10:23:24.239Z,68.87
2018-12-20T10:25:53.295Z,70.00
2018-12-20T10:28:22.355Z,63.77
2018-12-20T10:30:51.471Z,78.43
2018-12-20T10:33:20.533Z,74.57
2018-12-20T10:35:49.599Z,69.63
2018-12-20T10:38:18.703Z,85.20
2018-12-20T10:40:47.818Z,68.80
2018-12-20T10:43:16.887Z,75.37
2018-12-20T10:45:45.978Z,89.17
2018-12-20T10:48:15.042Z,84.93
2018-12-20T10:50:44.116Z,75.23
2018-12-20T10:53:13.494Z,78.00
2018-12-20T10:55:42.555Z,103.37
2018-12-20T10:58:11.621Z,82.23
2018-12-20T11:00:42.549Z,75.90
2018-12-20T11:03:17.139Z,78.97
2018-12-20T11:05:51.772Z,92.00
2018-12-20T11:08:22.694Z,82.13
2018-12-20T11:10:51.748Z,76.70
2018-12-20T11:13:25.937Z,92.53
2018-12-20T11:15:54.924Z,118.27
2018-12-20T11:18:23.980Z,100.53
2018-12-20T11:20:53.076Z,113.43
2018-12-20T11:23:22.142Z,132.57
2018-12-20T11:25:51.211Z,113.87
2018-12-20T11:28:20.519Z,101.77
2018-12-20T11:30:49.584Z,90.13
2018-12-20T11:33:18.648Z,108.03
2018-12-20T11:35:47.987Z,120.83
2018-12-20T11:38:17.080Z,110.83
2018-12-20T11:40:46.169Z,92.10
2018-12-20T11:43:15.584Z,92.30
2018-12-20T11:45:44.654Z,92.17
2018-12-20T11:48:13.738Z,88.40
2018-12-20T11:50:42.837Z,79.27
2018-12-20T11:53:11.899Z,94.13
2018-12-20T11:55:40.974Z,109.13
2018-12-20T11:58:10.126Z,136.97
2018-12-20T12:00:39.291Z,113.73
2018-12-20T12:03:08.281Z,107.33
2018-12-20T12:05:37.378Z,112.13
2018-12-20T12:08:06.460Z,146.23
2018-12-20T12:10:35.531Z,140.80
2018-12-20T12:13:04.628Z,102.40
2018-12-20T12:15:33.706Z,119.90
2018-12-20T12:18:02.790Z,126.83
2018-12-20T12:20:31.880Z,110.67
2018-12-20T12:23:01.027Z,122.20
2018-12-20T12:25:30.008Z,109.20
2018-12-20T12:27:59.110Z,94.53
2018-12-20T12:30:28.195Z,106.20
2018-12-20T12:32:57.253Z,94.90
2018-12-20T12:35:26.674Z,115.87
2018-12-20T12:37:55.750Z,118.57
2018-12-20T12:40:24.826Z,122.37
2018-12-20T12:42:53.912Z,141.93
2018-12-20T12:45:22.980Z,139.33
2018-12-20T12:50:35.490Z,104.17
2018-12-20T12:53:04.733Z,124.73
2018-12-20T12:55:33.795Z,119.87
2018-12-20T12:58:05.036Z,149.30
2018-12-20T13:00:31.964Z,130.77
2018-12-20T13:03:01.029Z,92.03
2018-12-20T13:05:30.099Z,140.37
2018-12-20T13:07:59.198Z,99.03
2018-12-20T13:10:28.260Z,128.53
2018-12-20T13:12:57.357Z,127.67
2018-12-20T13:15:26.493Z,146.63
2018-12-20T13:17:55.566Z,113.67
2018-12-20T13:20:24.631Z,158.17
2018-12-20T13:22:53.716Z,120.03
2018-12-20T13:25:22.783Z,159.70
2018-12-20T13:27:51.846Z,133.97
2018-12-20T13:30:20.941Z,107.27
2018-12-20T13:32:50.001Z,142.63
2018-12-20T13:35:19.057Z,112.27
2018-12-20T13:37:48.206Z,112.03
2018-12-20T13:40:17.272Z,119.23
2018-12-20T13:42:46.342Z,121.20
2018-12-20T13:45:15.438Z,107.50
2018-12-20T13:47:44.500Z,110.17
2018-12-20T13:50:13.566Z,107.60
2018-12-20T13:52:42.666Z,118.17
2018-12-20T13:55:11.752Z,117.80
2018-12-20T13:57:40.819Z,123.73
2018-12-20T14:00:09.917Z,146.67
2018-12-20T14:02:38.985Z,124.67
2018-12-20T14:05:08.040Z,114.40
2018-12-20T14:07:37.129Z,122.80
2018-12-20T14:10:06.190Z,113.60
2018-12-20T14:12:35.265Z,102.70
2018-12-20T14:15:04.351Z,107.57
2018-12-20T14:17:33.423Z,108.73
2018-12-20T14:20:02.479Z,127.10
2018-12-20T14:22:31.698Z,104.63
2018-12-20T14:25:00.786Z,104.30
2018-12-20T14:27:29.849Z,142.57
2018-12-20T14:29:58.946Z,153.80
2018-12-20T14:32:28.007Z,134.53
2018-12-20T14:34:57.079Z,134.73
2018-12-20T14:37:26.175Z,121.10
2018-12-20T14:39:55.230Z,138.77
2018-12-20T14:42:24.287Z,142.23
2018-12-20T14:44:53.750Z,134.97
2018-12-20T14:47:34.163Z,131.87
2018-12-20T14:50:03.278Z,182.27
2018-12-20T14:52:32.329Z,171.53
2018-12-20T14:55:01.400Z,148.57
2018-12-20T14:57:30.481Z,135.13
2018-12-20T14:59:59.561Z,154.70
2018-12-20T15:02:28.626Z,186.40
2018-12-20T15:04:57.737Z,153.80
2018-12-20T15:07:26.805Z,125.90
2018-12-20T15:09:55.871Z,141.83
2018-12-20T15:12:24.994Z,144.97
2018-12-20T15:14:54.059Z,139.07
2018-12-20T15:17:23.127Z,114.23
2018-12-20T15:19:52.219Z,131.33
2018-12-20T15:22:21.290Z,166.97
2018-12-20T15:24:50.364Z,116.87
2018-12-20T15:27:19.499Z,118.83
2018-12-20T15:29:48.566Z,107.07
2018-12-20T15:32:17.634Z,132.53
2018-12-20T15:34:46.810Z,118.73
2018-12-20T15:37:15.883Z,112.27
2018-12-20T15:39:44.950Z,133.83
2018-12-20T15:42:14.040Z,108.43
2018-12-20T15:44:43.114Z,111.23
2018-12-20T15:47:12.177Z,133.33
2018-12-20T15:49:42.135Z,133.83
2018-12-20T15:52:10.385Z,134.87
2018-12-20T15:54:39.450Z,109.60
2018-12-20T15:57:08.579Z,122.70
2018-12-20T15:59:37.665Z,144.57
2018-12-20T16:02:06.730Z,147.50
2018-12-20T16:04:35.822Z,171.13
2018-12-20T16:07:04.886Z,157.37
2018-12-20T16:09:33.958Z,145.33
2018-12-20T16:12:03.065Z,190.20
2018-12-20T16:14:32.141Z,172.93
2018-12-20T16:17:01.207Z,169.60
2018-12-20T16:19:30.307Z,169.33
2018-12-20T16:21:59.351Z,191.43
2018-12-20T16:24:28.423Z,226.97
2018-12-20T16:26:57.522Z,154.30
2018-12-20T16:29:26.608Z,170.00
2018-12-20T16:31:55.680Z,164.63
2018-12-20T16:34:25.220Z,172.57
2018-12-20T16:36:54.295Z,177.83
2018-12-20T16:39:23.558Z,161.37
2018-12-20T16:41:52.535Z,167.63
2018-12-20T16:44:21.600Z,179.57
2018-12-20T16:46:55.538Z,179.47
2018-12-20T16:49:24.602Z,157.67
2018-12-20T16:51:53.672Z,165.37
2018-12-20T16:54:22.802Z,197.33
2018-12-20T16:56:51.870Z,229.40
2018-12-20T16:59:20.945Z,225.33
2018-12-20T17:01:50.092Z,283.17
2018-12-20T17:04:19.174Z,171.33
2018-12-20T17:06:51.281Z,194.20
2018-12-20T17:09:20.355Z,181.30
2018-12-20T17:11:49.428Z,165.57
2018-12-20T17:14:18.566Z,185.70
2018-12-20T17:16:47.630Z,144.97
2018-12-20T17:19:22.134Z,170.97
2018-12-20T17:21:45.793Z,155.70
2018-12-20T17:24:14.868Z,236.90
2018-12-20T17:26:43.949Z,211.37
2018-12-20T17:29:13.143Z,168.33
2018-12-20T17:31:42.212Z,171.17
2018-12-20T17:34:11.287Z,186.43
2018-12-20T17:36:40.407Z,382.70
2018-12-20T17:39:09.492Z,551.13
2018-12-20T17:41:38.562Z,721.10
2018-12-20T17:44:07.662Z,186.73
2018-12-20T17:46:36.734Z,168.63
2018-12-20T17:49:05.826Z,204.60
2018-12-20T17:51:34.924Z,199.73
2018-12-20T17:54:04.002Z,174.40
2018-12-20T17:56:33.797Z,286.60
2018-12-20T17:59:02.207Z,279.23
2018-12-20T18:01:31.286Z,264.60
2018-12-20T18:04:00.382Z,253.53
2018-12-20T18:06:30.503Z,334.63
2018-12-20T18:08:59.573Z,191.07
2018-12-20T18:11:28.647Z,220.67
2018-12-20T18:13:57.749Z,250.43
2018-12-20T18:16:26.823Z,153.97
2018-12-20T18:18:55.888Z,195.37
2018-12-20T18:21:25.855Z,179.90
2018-12-20T18:23:54.914Z,140.93
2018-12-20T18:26:23.989Z,138.23
2018-12-20T18:28:53.082Z,157.73
2018-12-20T18:31:22.149Z,170.97
2018-12-20T18:33:51.222Z,187.60
2018-12-20T18:36:20.317Z,172.60
2018-12-20T18:38:49.399Z,184.27
2018-12-20T18:41:18.473Z,177.43
2018-12-20T18:43:47.574Z,194.33
2018-12-20T18:46:17.645Z,184.20
2018-12-20T18:48:46.735Z,160.30
2018-12-20T18:51:15.831Z,183.30
2018-12-20T18:53:44.887Z,176.93
2018-12-20T18:56:13.959Z,171.17
2018-12-20T18:58:43.064Z,195.67
2018-12-20T19:01:12.129Z,166.70
2018-12-20T19:03:41.252Z,164.63
2018-12-20T19:06:13.981Z,150.37
2018-12-20T19:08:43.042Z,143.53
2018-12-20T19:11:12.116Z,143.77
2018-12-20T19:13:41.210Z,152.47
2018-12-20T19:16:10.284Z,172.80
2018-12-20T19:18:39.358Z,196.43
2018-12-20T19:21:08.453Z,163.23
2018-12-20T19:23:37.530Z,194.03
2018-12-20T19:26:06.616Z,207.33
2018-12-20T19:28:35.810Z,192.53
2018-12-20T19:31:04.884Z,181.50
2018-12-20T19:33:33.952Z,224.67
2018-12-20T19:36:03.052Z,267.83
2018-12-20T19:38:32.133Z,212.13
2018-12-20T19:41:01.224Z,214.30
2018-12-20T19:43:30.332Z,224.87
2018-12-20T19:45:59.398Z,219.77
2018-12-20T19:48:28.477Z,292.47
2018-12-20T19:50:57.580Z,268.67
2018-12-20T19:53:26.648Z,193.83
2018-12-20T19:55:55.726Z,195.43
2018-12-20T19:58:24.825Z,192.30
2018-12-20T20:00:53.901Z,240.30
2018-12-20T20:03:22.979Z,210.07
2018-12-20T20:05:52.105Z,222.90
2018-12-20T20:08:21.189Z,234.10
2018-12-20T20:10:50.256Z,267.13
2018-12-20T20:13:19.632Z,242.17
2018-12-20T20:15:48.453Z,236.90
2018-12-20T20:18:17.518Z,222.57
2018-12-20T20:20:46.629Z,267.70
2018-12-20T20:23:15.694Z,251.80
2018-12-20T20:25:44.787Z,235.50
2018-12-20T20:28:13.906Z,278.10
2018-12-20T20:30:43.050Z,285.80
2018-12-20T20:33:12.145Z,216.80
2018-12-20T20:35:41.274Z,330.93
2018-12-20T20:38:10.357Z,414.53
2018-12-20T20:40:39.434Z,430.47
2018-12-20T20:43:08.549Z,308.33
2018-12-20T20:45:37.681Z,258.90
2018-12-20T20:48:06.783Z,230.97
2018-12-20T20:50:36.243Z,216.83
2018-12-20T20:53:05.320Z,195.00
2018-12-20T20:55:34.388Z,211.60
2018-12-20T20:58:03.496Z,212.73
2018-12-20T21:00:32.569Z,194.20
2018-12-20T21:03:01.638Z,181.60
2018-12-20T21:05:30.746Z,191.43
2018-12-20T21:07:59.834Z,177.23
2018-12-20T21:10:28.906Z,176.20
2018-12-20T21:12:58.105Z,180.60
2018-12-20T21:15:27.299Z,184.10
2018-12-20T21:17:56.363Z,201.03
2018-12-20T21:20:30.715Z,255.80
2018-12-20T21:22:54.562Z,275.93
2018-12-20T21:25:23.643Z,255.40
2018-12-20T21:27:52.741Z,238.73
2018-12-20T21:30:21.815Z,397.23
2018-12-20T21:32:50.898Z,305.57
2018-12-20T21:35:20.032Z,239.77
2018-12-20T21:37:49.100Z,283.43
2018-12-20T21:40:18.701Z,254.87
2018-12-20T21:42:47.280Z,263.83
2018-12-20T21:45:16.366Z,272.03
2018-12-20T21:47:45.444Z,313.27
2018-12-20T21:50:14.639Z,217.57
2018-12-20T21:52:43.780Z,175.30
2018-12-20T21:55:12.863Z,170.13
2018-12-20T21:57:42.051Z,178.90
2018-12-20T22:00:21.151Z,189.17
2018-12-20T22:02:52.769Z,187.70
2018-12-20T22:05:21.831Z,178.60
2018-12-20T22:07:50.904Z,179.70
2018-12-20T22:10:20.011Z,217.67
2018-12-20T22:12:49.086Z,251.23
2018-12-20T22:15:18.164Z,203.67
2018-12-20T22:17:47.647Z,176.57
2018-12-20T22:20:16.731Z,183.90
2018-12-20T22:22:45.796Z,173.00
2018-12-20T22:25:14.935Z,170.17
2018-12-20T22:27:44.010Z,169.73
2018-12-20T22:30:13.092Z,166.07
2018-12-20T22:32:42.182Z,181.07
2018-12-20T22:35:11.250Z,151.50
2018-12-20T22:37:40.320Z,148.87
2018-12-20T22:40:09.688Z,167.23
2018-12-20T22:42:38.761Z,219.30
2018-12-20T22:45:07.867Z,164.50
2018-12-20T22:47:37.053Z,214.63
2018-12-20T22:50:06.171Z,228.63
2018-12-20T22:52:35.243Z,207.47
2018-12-20T22:55:04.339Z,220.87
2018-12-20T22:57:33.410Z,196.07
2018-12-20T23:00:02.492Z,171.87
2018-12-20T23:02:31.602Z,192.20
2018-12-20T23:05:00.672Z,199.37
2018-12-20T23:07:29.744Z,219.87
2018-12-20T23:09:58.833Z,202.53
2018-12-20T23:12:27.928Z,211.00
2018-12-20T23:14:56.999Z,171.23
2018-12-20T23:20:21.114Z,221.00
2018-12-20T23:22:50.416Z,169.93
2018-12-20T23:25:19.492Z,212.57
2018-12-20T23:27:48.567Z,187.33
2018-12-20T23:30:17.663Z,183.23
2018-12-20T23:32:46.729Z,163.60
2018-12-20T23:35:15.795Z,184.03
2018-12-20T23:37:44.921Z,173.83
2018-12-20T23:40:14.013Z,182.33
2018-12-20T23:42:43.082Z,158.60
2018-12-20T23:45:12.173Z,154.43
2018-12-20T23:47:41.241Z,158.77
2018-12-20T23:50:10.319Z,161.20
2018-12-20T23:52:39.414Z,170.63
2018-12-20T23:55:08.478Z,158.47
2018-12-20T23:57:37.557Z,172.03
